createdAt,value
2022-09-28T00:02:40.129Z,97653.66
2022-09-28T00:05:29.056Z,97647.94
2022-09-28T00:08:17.335Z,97644.34
2022-09-28T00:11:07.515Z,97641.28
2022-09-28T00:13:59.180Z,97634.50
2022-09-28T00:16:48.640Z,97629.84
2022-09-28T00:19:36.623Z,97628.84
2022-09-28T00:22:24.551Z,97624.97
2022-09-28T00:25:12.428Z,97619.00
2022-09-28T00:28:00.297Z,97616.09
2022-09-28T00:30:48.891Z,97608.56
2022-09-28T00:33:40.876Z,97610.16
2022-09-28T00:36:29.321Z,97614.28
2022-09-28T00:39:19.025Z,97595.63
2022-09-28T00:42:15.394Z,97593.31
2022-09-28T00:45:03.636Z,97594.13
2022-09-28T00:47:53.031Z,97589.75
2022-09-28T00:50:43.616Z,97584.53
2022-09-28T00:53:34.931Z,97587.66
2022-09-28T00:59:41.780Z,97575.16
2022-09-28T01:02:29.604Z,97578.75
2022-09-28T01:05:19.673Z,97569.59
2022-09-28T01:08:10.008Z,97559.19
2022-09-28T01:10:58.593Z,97555.78
2022-09-28T01:13:46.994Z,97555.50
2022-09-28T01:16:43.473Z,97560.72
2022-09-28T01:20:29.079Z,97541.22
2022-09-28T01:24:10.342Z,97528.50
2022-09-28T01:27:15.326Z,97531.31
2022-09-28T01:30:07.486Z,97524.00
2022-09-28T01:33:02.710Z,97511.97
2022-09-28T01:35:56.966Z,97508.53
2022-09-28T01:38:49.818Z,97504.31
2022-09-28T01:41:40.341Z,97503.75
2022-09-28T01:44:33.853Z,97506.06
2022-09-28T01:47:24.543Z,97493.34
2022-09-28T01:50:16.494Z,97496.44
2022-09-28T01:53:13.580Z,97491.72
2022-09-28T01:56:07.979Z,97490.13
2022-09-28T01:59:01.185Z,97482.78
2022-09-28T02:01:56.783Z,97484.84
2022-09-28T02:04:50.834Z,97486.88
2022-09-28T02:07:43.081Z,97467.03
2022-09-28T02:10:39.014Z,97461.25
2022-09-28T02:13:31.143Z,97466.97
2022-09-28T02:16:26.418Z,97461.75
2022-09-28T02:19:18.834Z,97464.34
2022-09-28T02:22:23.364Z,97464.34
2022-09-28T02:25:18.368Z,97466.97
2022-09-28T02:28:08.179Z,97468.25
2022-09-28T02:30:56.428Z,97472.13
2022-09-28T02:33:45.873Z,97458.81
2022-09-28T02:36:35.312Z,97444.44
2022-09-28T02:39:23.317Z,97447.81
2022-09-28T02:42:21.327Z,97443.59
2022-09-28T02:45:18.900Z,97439.16
2022-09-28T02:48:31.446Z,97449.59
2022-09-28T02:51:40.643Z,97444.38
2022-09-28T02:54:52.939Z,97443.59
2022-09-28T02:58:01.482Z,97446.47
2022-09-28T03:00:58.770Z,97442.63
2022-09-28T03:03:51.982Z,97444.44
2022-09-28T03:06:46.345Z,97442.91
2022-09-28T03:09:40.441Z,97444.16
2022-09-28T03:12:29.394Z,97431.69
2022-09-28T03:15:24.222Z,97431.41
2022-09-28T03:18:12.177Z,97433.53
2022-09-28T03:21:03.054Z,97441.06
2022-09-28T03:23:51.742Z,97434.28
2022-09-28T03:26:39.812Z,97437.41
2022-09-28T03:29:31.327Z,97440.78
2022-09-28T03:32:21.788Z,97430.84
2022-09-28T03:35:11.229Z,97441.25
2022-09-28T03:37:58.913Z,97433.94
2022-09-28T03:40:56.342Z,97438.09
2022-09-28T03:43:44.177Z,97440.13
2022-09-28T03:46:33.741Z,97439.06
2022-09-28T03:49:26.084Z,97439.56
2022-09-28T03:52:14.079Z,97436.97
2022-09-28T03:55:01.564Z,97439.84
2022-09-28T03:57:56.137Z,97427.91
2022-09-28T04:00:43.356Z,97431.25
2022-09-28T04:03:31.208Z,97422.41
2022-09-28T04:06:18.796Z,97432.81
2022-09-28T04:09:06.245Z,97439.06
2022-09-28T04:12:03.933Z,97443.25
2022-09-28T04:14:54.259Z,97445.84
2022-09-28T04:17:41.949Z,97438.78
2022-09-28T04:20:41.040Z,97457.81
2022-09-28T04:23:32.855Z,97444.28
2022-09-28T04:26:22.253Z,97438.03
2022-09-28T04:29:16.139Z,97446.31
2022-09-28T04:32:12.039Z,97447.13
2022-09-28T04:35:01.350Z,97444.97
2022-09-28T04:37:48.823Z,97446.53
2022-09-28T04:40:36.841Z,97452.03
2022-09-28T04:43:24.219Z,97454.66
2022-09-28T04:46:12.602Z,97447.88
2022-09-28T04:49:10.086Z,97455.13
2022-09-28T04:52:18.202Z,97454.09
2022-09-28T04:55:09.386Z,97448.28
2022-09-28T04:57:56.600Z,97452.16
2022-09-28T05:00:43.849Z,97457.09
2022-09-28T05:03:50.309Z,97461.25
2022-09-28T05:06:48.940Z,97459.13
2022-09-28T05:09:38.530Z,97459.31
2022-09-28T05:12:26.546Z,97459.53
2022-09-28T05:15:15.771Z,97463.69
2022-09-28T05:18:03.121Z,97463.13
2022-09-28T05:21:02.108Z,97465.72
2022-09-28T05:23:50.968Z,97480.31
2022-09-28T05:26:40.058Z,97487.66
2022-09-28T05:29:32.161Z,97483.47
2022-09-28T05:32:41.773Z,97479.91
2022-09-28T05:35:39.801Z,97480.41
2022-09-28T05:38:27.767Z,97482.44
2022-09-28T05:41:16.587Z,97486.03
2022-09-28T05:44:04.079Z,97495.88
2022-09-28T05:46:54.150Z,97495.88
2022-09-28T05:49:41.349Z,97498.22
2022-09-28T05:52:28.556Z,97502.06
2022-09-28T05:55:15.932Z,97502.53
2022-09-28T05:58:11.407Z,97498.91
2022-09-28T06:01:25.547Z,97505.94
2022-09-28T06:04:20.101Z,97502.06
2022-09-28T06:07:12.323Z,97503.09
2022-09-28T06:10:03.224Z,97506.78
2022-09-28T06:13:22.284Z,97507.63
2022-09-28T06:16:11.475Z,97515.72
2022-09-28T06:18:59.532Z,97513.72
2022-09-28T06:22:16.089Z,97515.31
2022-09-28T06:25:11.358Z,97513.78
2022-09-28T06:28:01.520Z,97521.31
2022-09-28T06:30:50.530Z,97523.66
2022-09-28T06:33:42.085Z,97534.59
2022-09-28T06:36:31.252Z,97534.06
2022-09-28T06:39:19.218Z,97536.13
2022-09-28T06:42:06.809Z,97540.69
2022-09-28T06:45:13.519Z,97546.31
2022-09-28T06:48:15.083Z,97549.88
2022-09-28T06:51:03.164Z,97557.16
2022-09-28T06:53:55.452Z,97559.69
2022-09-28T06:57:00.006Z,97561.75
2022-09-28T06:59:47.217Z,97572.06
2022-09-28T07:02:35.641Z,97566.56
2022-09-28T07:05:43.676Z,97580.88
2022-09-28T07:08:53.423Z,97582.72
2022-09-28T07:12:00.381Z,97585.81
2022-09-28T07:15:41.150Z,97584.47
2022-09-28T07:18:32.512Z,97589.41
2022-09-28T07:21:29.051Z,97597.44
2022-09-28T07:24:21.058Z,97603.31
2022-09-28T07:28:18.128Z,97607.19
2022-09-28T07:31:35.595Z,97610.25
2022-09-28T07:34:43.921Z,97611.56
2022-09-28T07:38:17.521Z,97604.38
2022-09-28T07:41:12.894Z,97609.81
2022-09-28T07:44:06.679Z,97627.06
2022-09-28T07:47:13.088Z,97626.28
2022-09-28T07:50:34.195Z,97617.47
2022-09-28T07:53:36.479Z,97628.41
2022-09-28T07:56:49.927Z,97638.09
2022-09-28T08:00:54.325Z,97644.78
2022-09-28T08:08:51.180Z,97647.50
2022-09-28T08:28:35.021Z,97673.34
2022-09-28T08:32:01.555Z,97683.91
2022-09-28T08:35:16.134Z,97667.34
2022-09-28T08:43:03.644Z,97674.41
2022-09-28T08:47:51.527Z,97684.38
2022-09-28T08:55:29.190Z,97691.44
2022-09-28T08:58:28.608Z,97689.03
2022-09-28T09:01:44.229Z,97694.53
2022-09-28T09:04:37.986Z,97696.41
2022-09-28T09:08:18.819Z,97705.28
2022-09-28T09:11:22.737Z,97709.94
2022-09-28T09:15:06.079Z,97702.09
2022-09-28T09:18:09.103Z,97705.66
2022-09-28T09:21:44.812Z,97713.22
2022-09-28T09:24:50.835Z,97708.00
2022-09-28T09:27:56.892Z,97706.44
2022-09-28T09:31:01.732Z,97712.47
2022-09-28T09:34:41.267Z,97716.91
2022-09-28T09:38:25.013Z,97723.97
2022-09-28T09:41:46.764Z,97718.28
2022-09-28T09:45:39.789Z,97715.09
2022-09-28T09:53:06.720Z,97714.91
2022-09-28T09:56:02.558Z,97704.31
2022-09-28T09:59:24.207Z,97706.06
2022-09-28T10:02:28.380Z,97708.97
2022-09-28T10:09:24.226Z,97712.16
2022-09-28T10:12:22.254Z,97722.34
2022-09-28T10:15:24.739Z,97712.66
2022-09-28T10:18:33.330Z,97706.88
2022-09-28T10:21:59.585Z,97711.91
2022-09-28T10:25:00.114Z,97708.00
2022-09-28T10:27:55.612Z,97713.50
2022-09-28T10:30:45.111Z,97717.09
2022-09-28T10:33:35.867Z,97717.09
2022-09-28T10:36:26.573Z,97726.59
2022-09-28T10:39:33.335Z,97727.16
2022-09-28T10:42:25.192Z,97731.22
2022-09-28T10:45:26.160Z,97727.53
2022-09-28T10:51:56.714Z,97728.88
2022-09-28T11:00:48.346Z,97730.72
2022-09-28T11:12:59.896Z,97712.16
2022-09-28T11:15:53.220Z,97708.78
2022-09-28T11:18:54.483Z,97709.19
2022-09-28T11:21:46.102Z,97711.94
2022-09-28T11:24:41.271Z,97711.25
2022-09-28T11:27:40.140Z,97714.34
2022-09-28T11:30:44.596Z,97720.97
2022-09-28T11:34:09.888Z,97716.00
2022-09-28T11:37:43.542Z,97715.53
2022-09-28T11:40:51.790Z,97721.34
2022-09-28T11:44:09.808Z,97720.59
2022-09-28T11:47:41.022Z,97724.44
2022-09-28T11:51:03.791Z,97727.66
2022-09-28T11:54:02.719Z,97725.25
2022-09-28T11:56:59.078Z,97728.31
2022-09-28T11:59:59.449Z,97731.44
2022-09-28T12:03:26.745Z,97721.13
2022-09-28T12:06:45.182Z,97713.75
2022-09-28T12:15:05.584Z,97732.19
2022-09-28T12:18:09.002Z,97734.34
2022-09-28T12:29:12.153Z,97731.06
2022-09-28T12:32:30.902Z,97728.16
2022-09-28T12:39:18.072Z,97723.09
2022-09-28T12:42:33.289Z,97735.09
2022-09-28T12:46:12.001Z,97730.63
2022-09-28T12:50:36.978Z,97731.72
2022-09-28T13:01:07.638Z,97726.69
2022-09-28T13:05:12.518Z,97727.00
2022-09-28T13:13:20.971Z,97717.88
2022-09-28T13:16:17.716Z,97720.38
2022-09-28T13:19:13.095Z,97722.91
2022-09-28T13:22:14.722Z,97720.16
2022-09-28T13:25:08.496Z,97715.88
2022-09-28T13:28:02.317Z,97710.06
2022-09-28T13:30:51.405Z,97712.59
2022-09-28T13:33:42.037Z,97704.44
2022-09-28T13:36:47.247Z,97715.78
2022-09-28T13:39:52.048Z,97715.78
2022-09-28T13:43:10.672Z,97714.22
2022-09-28T13:46:07.423Z,97727.31
2022-09-28T13:49:07.092Z,97711.59
2022-09-28T13:52:06.173Z,97713.19
2022-09-28T13:55:15.662Z,97717.03
2022-09-28T13:58:13.432Z,97713.53
2022-09-28T14:01:07.670Z,97718.66
2022-09-28T14:03:58.121Z,97712.53
2022-09-28T14:06:54.831Z,97719.00
2022-09-28T14:09:47.603Z,97718.72
2022-09-28T14:12:50.325Z,97728.44
2022-09-28T14:15:46.646Z,97727.38
2022-09-28T14:18:35.327Z,97721.06
2022-09-28T14:22:12.453Z,97732.09
2022-09-28T14:25:11.889Z,97727.38
2022-09-28T14:28:14.038Z,97731.72
2022-09-28T14:31:10.723Z,97733.75
2022-09-28T14:34:01.241Z,97735.59
2022-09-28T14:37:08.122Z,97740.22
2022-09-28T14:40:13.364Z,97741.59
2022-09-28T14:43:36.817Z,97736.97
2022-09-28T14:46:39.029Z,97735.72
2022-09-28T14:49:51.310Z,97743.88
2022-09-28T14:52:42.310Z,97738.91
2022-09-28T14:55:35.430Z,97743.88
2022-09-28T14:58:26.719Z,97747.22
2022-09-28T15:01:21.121Z,97752.84
2022-09-28T15:04:14.059Z,97756.44
2022-09-28T15:07:01.591Z,97754.28
2022-09-28T15:09:51.389Z,97751.66
2022-09-28T15:12:39.848Z,97752.16
2022-09-28T15:15:33.947Z,97753.19
2022-09-28T15:19:06.946Z,97753.03
2022-09-28T15:21:59.103Z,97755.34
2022-09-28T15:25:00.024Z,97762.91
2022-09-28T15:27:54.168Z,97762.91
2022-09-28T15:30:41.865Z,97762.34
2022-09-28T15:33:49.561Z,97755.72
2022-09-28T15:36:41.112Z,97764.03
2022-09-28T15:39:34.109Z,97758.81
2022-09-28T15:42:22.814Z,97764.81
2022-09-28T15:45:26.600Z,97757.47
2022-09-28T15:48:31.987Z,97756.97
2022-09-28T15:51:21.419Z,97759.59
2022-09-28T15:54:19.732Z,97759.28
2022-09-28T15:57:33.819Z,97766.66
2022-09-28T16:00:29.083Z,97770.06
2022-09-28T16:03:29.164Z,97774.06
2022-09-28T16:06:16.375Z,97769.91
2022-09-28T16:09:03.605Z,97767.88
2022-09-28T16:11:51.028Z,97772.63
2022-09-28T16:14:39.981Z,97769.53
2022-09-28T16:17:33.850Z,97779.53
2022-09-28T16:20:32.026Z,97775.94
2022-09-28T16:23:24.710Z,97783.31
2022-09-28T16:26:18.133Z,97784.69
2022-09-28T16:29:10.590Z,97782.34
2022-09-28T16:32:41.689Z,97784.03
2022-09-28T16:35:32.235Z,97783.53
2022-09-28T16:38:21.496Z,97784.91
2022-09-28T16:41:10.595Z,97785.19
2022-09-28T16:44:02.163Z,97789.19
2022-09-28T16:46:49.718Z,97795.78
2022-09-28T16:49:41.073Z,97796.38
2022-09-28T16:52:42.384Z,97796.94
2022-09-28T16:55:39.940Z,97792.88
2022-09-28T16:58:28.919Z,97801.31
2022-09-28T17:01:16.365Z,97802.97
2022-09-28T17:04:04.032Z,97800.94
2022-09-28T17:06:54.425Z,97799.69
2022-09-28T17:09:41.624Z,97811.53
2022-09-28T17:12:29.592Z,97801.63
2022-09-28T17:15:19.542Z,97813.41
2022-09-28T17:18:06.997Z,97814.78
2022-09-28T17:20:56.786Z,97820.13
2022-09-28T17:23:46.245Z,97818.66
2022-09-28T17:26:34.812Z,97814.56
2022-09-28T17:29:22.184Z,97824.06
2022-09-28T17:32:17.629Z,97821.56
2022-09-28T17:35:23.552Z,97827.16
2022-09-28T17:38:13.639Z,97833.53
2022-09-28T17:41:02.447Z,97829.19
2022-09-28T17:43:50.302Z,97839.16
2022-09-28T17:46:40.700Z,97848.63
2022-09-28T17:49:28.524Z,97844.53
2022-09-28T17:52:15.989Z,97842.50
2022-09-28T17:55:03.287Z,97844.72
2022-09-28T17:57:52.411Z,97844.81
2022-09-28T18:00:40.280Z,97850.09
2022-09-28T18:03:27.800Z,97849.13
2022-09-28T18:06:19.728Z,97850.75
2022-09-28T18:09:08.783Z,97856.28
2022-09-28T18:12:01.481Z,97855.28
2022-09-28T18:14:50.058Z,97855.03
2022-09-28T18:17:38.251Z,97853.00
2022-09-28T18:20:25.742Z,97859.84
2022-09-28T18:23:12.998Z,97868.25
2022-09-28T18:26:00.142Z,97881.88
2022-09-28T18:28:48.549Z,97877.59
2022-09-28T18:31:38.370Z,97875.03
2022-09-28T18:34:25.829Z,97879.28
2022-09-28T18:37:13.401Z,97870.97
2022-09-28T18:40:00.591Z,97883.50
2022-09-28T18:42:48.718Z,97883.78
2022-09-28T18:45:37.351Z,97881.19
2022-09-28T18:48:28.014Z,97882.81
2022-09-28T18:51:15.185Z,97886.50
2022-09-28T18:54:07.257Z,97885.97
2022-09-28T18:56:57.185Z,97886.06
2022-09-28T18:59:44.714Z,97882.94
2022-09-28T19:02:32.118Z,97893.38
2022-09-28T19:05:21.062Z,97892.88
2022-09-28T19:08:08.317Z,97897.06
2022-09-28T19:11:06.793Z,97901.78
2022-09-28T19:13:55.272Z,97905.72
2022-09-28T19:16:44.601Z,97909.13
2022-09-28T19:19:32.365Z,97903.91
2022-09-28T19:22:21.401Z,97901.56
2022-09-28T19:25:09.710Z,97910.44
2022-09-28T19:27:57.230Z,97910.72
2022-09-28T19:30:44.764Z,97909.69
2022-09-28T19:33:32.493Z,97915.38
2022-09-28T19:36:24.227Z,97905.44
2022-09-28T19:39:15.924Z,97907.78
2022-09-28T19:42:03.107Z,97913.00
2022-09-28T19:44:51.158Z,97912.72
2022-09-28T19:47:39.038Z,97911.94
2022-09-28T19:50:26.346Z,97910.66
2022-09-28T19:53:13.968Z,97915.38
2022-09-28T19:56:05.063Z,97924.28
2022-09-28T19:58:52.846Z,97919.88
2022-09-28T20:01:41.979Z,97927.53
2022-09-28T20:04:30.034Z,97933.03
2022-09-28T20:07:17.369Z,97925.47
2022-09-28T20:10:05.426Z,97935.13
2022-09-28T20:12:54.552Z,97936.94
2022-09-28T20:15:41.932Z,97937.53
2022-09-28T20:18:29.286Z,97936.22
2022-09-28T20:21:20.194Z,97949.53
2022-09-28T20:24:09.364Z,97943.84
2022-09-28T20:26:56.978Z,97942.00
2022-09-28T20:29:45.791Z,97940.72
2022-09-28T20:32:33.405Z,97943.34
2022-09-28T20:35:32.105Z,97941.28
2022-09-28T20:38:20.092Z,97946.00
2022-09-28T20:41:07.924Z,97944.41
2022-09-28T20:44:04.137Z,97947.00
2022-09-28T20:46:54.064Z,97951.47
2022-09-28T20:49:41.580Z,97957.22
2022-09-28T20:52:28.817Z,97954.59
2022-09-28T20:55:16.403Z,97966.88
2022-09-28T20:58:05.233Z,97959.31
2022-09-28T21:00:52.876Z,97956.97
2022-09-28T21:03:41.649Z,97960.66
2022-09-28T21:06:31.573Z,97959.06
2022-09-28T21:09:19.089Z,97952.31
2022-09-28T21:12:06.854Z,97955.97
2022-09-28T21:14:54.456Z,97956.25
2022-09-28T21:17:41.701Z,97953.63
2022-09-28T21:20:30.325Z,97956.53
2022-09-28T21:23:22.768Z,97948.97
2022-09-28T21:26:14.383Z,97959.41
2022-09-28T21:29:04.755Z,97955.53
2022-09-28T21:31:52.200Z,97952.69
2022-09-28T21:34:39.441Z,97956.06
2022-09-28T21:37:28.089Z,97952.41
2022-09-28T21:40:15.777Z,97952.41
2022-09-28T21:43:03.449Z,97949.28
2022-09-28T21:45:52.120Z,97951.88
2022-09-28T21:48:42.019Z,97949.28
2022-09-28T21:51:29.802Z,97951.88
2022-09-28T21:54:18.790Z,97952.16
2022-09-28T21:57:06.913Z,97957.09
2022-09-28T21:59:54.172Z,97953.75
2022-09-28T22:02:42.312Z,97958.16
2022-09-28T22:05:30.233Z,97953.50
2022-09-28T22:08:17.763Z,97952.75
2022-09-28T22:11:08.957Z,97955.63
2022-09-28T22:13:58.990Z,97955.38
2022-09-28T22:16:46.303Z,97950.16
2022-09-28T22:19:33.672Z,97950.16
2022-09-28T22:22:21.320Z,97959.81
2022-09-28T22:25:09.894Z,97956.72
2022-09-28T22:27:58.781Z,97956.19
2022-09-28T22:30:46.903Z,97953.09
2022-09-28T22:33:34.566Z,97945.28
2022-09-28T22:36:22.123Z,97951.53
2022-09-28T22:39:09.541Z,97954.94
2022-09-28T22:41:56.741Z,97951.53
2022-09-28T22:44:45.461Z,97959.34
2022-09-28T22:47:33.406Z,97950.25
2022-09-28T22:50:20.636Z,97951.59
2022-09-28T22:53:08.079Z,97947.72
2022-09-28T22:55:55.996Z,97947.47
2022-09-28T22:58:43.669Z,97952.47
2022-09-28T23:01:32.713Z,97938.63
2022-09-28T23:04:20.872Z,97950.41
2022-09-28T23:07:08.533Z,97948.81
2022-09-28T23:09:58.223Z,97955.88
2022-09-28T23:12:45.733Z,97952.28
2022-09-28T23:15:32.987Z,97954.66
2022-09-28T23:18:21.717Z,97950.25
2022-09-28T23:21:15.202Z,97954.97
2022-09-28T23:24:03.267Z,97953.19
2022-09-28T23:26:50.873Z,97961.28
2022-09-28T23:29:42.634Z,97965.69
2022-09-28T23:32:32.010Z,97961.03
2022-09-28T23:35:21.485Z,97956.06
2022-09-28T23:38:11.687Z,97958.19
2022-09-28T23:40:59.039Z,97961.34
2022-09-28T23:43:52.575Z,97953.53
2022-09-28T23:46:46.137Z,97952.53
2022-09-28T23:49:33.523Z,97960.63
2022-09-28T23:52:22.464Z,97958.84
2022-09-28T23:55:10.441Z,97947.91
2022-09-28T23:57:58.704Z,97961.50
